Time;durP1;ratioP1;P1;durP2;ratioP2;P2;SDS_P1;SDS_P2;PMS_P1;PMS_P2;Temp;Humidity;BMP_temperature;BMP_pressure;BME280_temperature;BME280_humidity;BME280_pressure;Samples;Min_cycle;Max_cycle;Signal;HPM_P1;HPM_P2
2022/08/01 00:02:09;;;;;;;2.83;2.70;;;21.40;97.30;;;;;;5032984;28;20189;-88
2022/08/01 00:04:35;;;;;;;1.57;1.50;;;21.40;97.30;;;;;;5032460;28;20183;-87
2022/08/01 00:07:00;;;;;;;2.03;1.90;;;21.40;97.30;;;;;;5032362;28;20195;-88
2022/08/01 00:09:26;;;;;;;4.00;2.10;;;21.30;97.30;;;;;;5031278;28;20204;-87
2022/08/01 00:11:51;;;;;;;2.63;1.90;;;21.30;97.30;;;;;;5032183;28;20200;-88
2022/08/01 00:14:17;;;;;;;1.80;1.70;;;21.30;97.30;;;;;;5032146;28;20280;-88
2022/08/01 00:16:42;;;;;;;2.70;2.50;;;21.20;97.30;;;;;;5032509;28;20172;-88
2022/08/01 00:19:08;;;;;;;2.23;2.03;;;21.20;97.30;;;;;;5019175;28;20195;-87
2022/08/01 00:21:33;;;;;;;7.40;2.60;;;21.20;97.30;;;;;;5030047;28;20188;-88
2022/08/01 00:23:59;;;;;;;2.37;2.17;;;21.10;97.30;;;;;;5034845;28;20787;-88
2022/08/01 00:26:24;;;;;;;2.23;2.03;;;21.10;97.30;;;;;;5032372;28;20177;-87
2022/08/01 00:28:50;;;;;;;4.47;2.20;;;21.10;97.30;;;;;;5033191;28;20467;-88
2022/08/01 00:31:15;;;;;;;2.17;1.63;;;21.10;97.30;;;;;;5031939;28;20275;-88
2022/08/01 00:33:41;;;;;;;4.20;2.70;;;21.10;97.30;;;;;;5032907;28;20184;-86
2022/08/01 00:36:06;;;;;;;2.63;2.43;;;21.10;97.30;;;;;;5033052;28;20227;-88
2022/08/01 00:38:32;;;;;;;2.40;2.23;;;21.10;97.30;;;;;;5015909;28;20178;-88
2022/08/01 00:40:58;;;;;;;4.20;2.10;;;21.10;97.30;;;;;;5043008;28;20274;-88
2022/08/01 00:43:26;;;;;;;8.93;1.87;;;21.10;97.30;;;;;;5031686;28;20423;-88
2022/08/01 00:45:51;;;;;;;2.40;2.20;;;21.10;97.30;;;;;;5032033;28;20184;-87
2022/08/01 00:48:17;;;;;;;2.73;2.37;;;21.10;97.30;;;;;;5032694;28;20430;-88
2022/08/01 00:50:43;;;;;;;2.73;2.50;;;21.10;97.30;;;;;;5032771;28;20204;-88
2022/08/01 00:53:08;;;;;;;4.30;1.80;;;21.10;97.30;;;;;;5032728;28;20685;-87
2022/08/01 00:55:34;;;;;;;1.77;1.67;;;21.10;97.30;;;;;;5032739;28;20447;-88
2022/08/01 00:58:00;;;;;;;2.07;1.83;;;21.10;97.30;;;;;;5043169;28;20187;-87
2022/08/01 01:00:25;;;;;;;8.03;2.87;;;21.10;97.30;;;;;;5030978;28;20207;-87
2022/08/01 01:02:51;;;;;;;3.67;2.80;;;21.10;97.30;;;;;;5024097;28;20185;-87
2022/08/01 01:05:17;;;;;;;1.77;1.73;;;21.20;97.30;;;;;;5028253;28;20192;-88
2022/08/01 01:07:56;;;;;;;2.33;2.13;;;21.20;97.30;;;;;;5031481;28;20431;-88
2022/08/01 01:10:54;;;;;;;1.67;1.27;;;21.20;97.30;;;;;;5032209;28;20560;-88
2022/08/01 01:13:24;;;;;;;3.67;3.20;;;21.20;97.30;;;;;;5025509;28;20416;-87
2022/08/01 01:15:57;;;;;;;3.40;1.80;;;21.20;97.30;;;;;;5031769;28;20419;-88
2022/08/01 01:18:47;;;;;;;3.33;2.17;;;21.10;97.30;;;;;;5018080;28;20451;-88
2022/08/01 01:21:19;;;;;;;3.10;1.80;;;21.10;97.30;;;;;;5030293;28;20470;-87
2022/08/01 01:24:13;;;;;;;2.50;2.33;;;21.10;97.30;;;;;;5030793;28;20415;-87
2022/08/01 01:26:52;;;;;;;2.40;2.20;;;21.10;97.30;;;;;;5030913;28;20420;-87
2022/08/01 01:29:32;;;;;;;2.43;2.23;;;21.10;97.30;;;;;;5030627;28;20423;-87
2022/08/01 01:32:15;;;;;;;2.80;2.00;;;21.10;97.30;;;;;;5047306;28;20512;-88
2022/08/01 01:34:45;;;;;;;2.80;2.00;;;21.10;97.30;;;;;;5030886;28;20586;-89
2022/08/01 01:37:15;;;;;;;2.67;2.47;;;21.10;97.30;;;;;;5031330;28;20426;-88
2022/08/01 01:39:42;;;;;;;1.57;1.47;;;21.10;97.30;;;;;;5030312;28;20431;-88
2022/08/01 01:42:08;;;;;;;1.60;1.47;;;21.10;97.30;;;;;;5030911;28;20442;-87
2022/08/01 01:44:35;;;;;;;2.33;2.13;;;21.10;97.30;;;;;;5030630;28;20411;-87
2022/08/01 01:47:02;;;;;;;3.60;2.30;;;21.10;97.30;;;;;;5031970;28;20423;-88
2022/08/01 01:49:29;;;;;;;6.20;2.47;;;21.10;97.30;;;;;;5030489;28;20434;-88
2022/08/01 01:51:57;;;;;;;4.40;2.17;;;21.10;97.30;;;;;;5031750;28;20455;-88
2022/08/01 01:54:27;;;;;;;2.80;2.60;;;21.00;97.30;;;;;;5030273;28;20473;-87
2022/08/01 01:56:58;;;;;;;6.10;1.97;;;21.10;97.30;;;;;;5032205;28;20501;-88
2022/08/01 01:59:28;;;;;;;2.23;1.80;;;21.10;97.30;;;;;;5044232;28;20940;-88
2022/08/01 02:01:56;;;;;;;3.23;2.00;;;21.00;97.30;;;;;;5018344;28;20822;-88
2022/08/01 02:04:24;;;;;;;3.50;1.90;;;21.10;97.30;;;;;;5030585;28;20411;-88
2022/08/01 02:06:51;;;;;;;1.77;1.70;;;21.10;97.30;;;;;;5031456;28;21016;-88
2022/08/01 02:09:18;;;;;;;1.70;1.60;;;21.00;97.30;;;;;;5018494;28;20423;-88
2022/08/01 02:11:45;;;;;;;2.33;1.80;;;21.00;97.30;;;;;;5030396;28;20457;-88
2022/08/01 02:14:12;;;;;;;4.20;2.20;;;21.00;97.30;;;;;;5027911;28;20421;-89
2022/08/01 02:16:40;;;;;;;2.90;1.77;;;21.00;97.30;;;;;;5030308;28;20872;-88
2022/08/01 02:19:06;;;;;;;4.13;3.10;;;21.00;97.30;;;;;;5031449;28;20459;-87
2022/08/01 02:21:41;;;;;;;1.70;1.60;;;20.90;97.30;;;;;;5029944;28;20462;-87
2022/08/01 02:24:14;;;;;;;2.70;2.30;;;20.90;97.30;;;;;;5030371;28;20267;-88
2022/08/01 02:26:46;;;;;;;1.97;1.83;;;20.90;97.30;;;;;;5029117;28;20444;-88
2022/08/01 02:29:18;;;;;;;1.80;1.67;;;20.80;97.30;;;;;;5030454;28;20434;-87
2022/08/01 02:34:15;;;;;;;1.60;1.50;;;20.70;97.30;;;;;;5055181;28;20481;-82
2022/08/01 02:36:43;;;;;;;2.47;2.27;;;20.70;97.30;;;;;;5039922;28;20999;-82
2022/08/01 02:39:13;;;;;;;3.23;2.90;;;20.70;97.30;;;;;;5040045;28;20492;-82
2022/08/01 02:41:43;;;;;;;1.80;1.70;;;20.60;97.30;;;;;;5040536;28;20899;-82
2022/08/01 02:44:14;;;;;;;2.30;1.90;;;20.60;97.30;;;;;;5057792;28;20410;-82
2022/08/01 02:47:01;;;;;;;2.30;2.00;;;20.60;97.30;;;;;;5039198;28;20420;-82
2022/08/01 02:49:31;;;;;;;2.20;2.00;;;20.60;97.30;;;;;;5040294;28;20442;-82
2022/08/01 02:51:58;;;;;;;2.70;2.10;;;20.60;97.30;;;;;;5039447;28;20457;-81
2022/08/01 02:54:25;;;;;;;1.97;1.63;;;20.50;97.30;;;;;;5057587;28;20414;-82
2022/08/01 02:56:52;;;;;;;1.93;1.87;;;20.50;97.30;;;;;;5039922;28;20418;-82
2022/08/01 02:59:20;;;;;;;2.57;1.97;;;20.50;97.30;;;;;;5039733;28;20802;-81
2022/08/01 03:01:47;;;;;;;2.00;1.87;;;20.40;97.30;;;;;;5038654;28;20421;-82
2022/08/01 03:04:17;;;;;;;4.07;1.90;;;20.40;97.30;;;;;;5038572;28;20422;-82
2022/08/01 03:06:44;;;;;;;1.60;1.50;;;20.40;97.30;;;;;;5038905;28;20422;-82
2022/08/01 03:09:11;;;;;;;3.00;2.53;;;20.30;97.30;;;;;;5039117;28;20887;-82
2022/08/01 03:11:41;;;;;;;2.97;2.80;;;20.30;97.30;;;;;;5038904;28;20454;-82
2022/08/01 03:14:09;;;;;;;3.80;1.70;;;20.30;97.30;;;;;;5039183;28;20411;-82
2022/08/01 03:16:39;;;;;;;2.80;2.60;;;20.30;97.30;;;;;;5042512;28;20420;-82
2022/08/01 03:19:08;;;;;;;2.90;2.13;;;20.20;97.30;;;;;;5045928;28;20422;-81
2022/08/01 03:21:34;;;;;;;1.47;1.43;;;20.20;97.30;;;;;;5038498;28;20434;-82
2022/08/01 03:24:01;;;;;;;1.53;1.43;;;20.20;97.30;;;;;;5038988;28;20930;-82
2022/08/01 03:26:33;;;;;;;2.90;1.77;;;20.20;97.30;;;;;;5038273;28;20931;-82
2022/08/01 03:29:06;;;;;;;2.60;2.13;;;20.30;97.30;;;;;;5038594;28;20434;-82
2022/08/01 03:31:34;;;;;;;2.80;2.33;;;20.30;97.30;;;;;;5037978;28;20457;-82
2022/08/01 03:34:00;;;;;;;2.63;2.43;;;20.20;97.30;;;;;;5037457;28;20824;-81
2022/08/01 03:36:28;;;;;;;5.63;3.03;;;20.20;97.30;;;;;;5038732;28;20545;-82
2022/08/01 03:38:57;;;;;;;2.33;1.80;;;20.30;97.30;;;;;;5039145;28;20267;-82
2022/08/01 03:41:27;;;;;;;2.33;2.13;;;20.30;97.30;;;;;;5038881;28;20794;-81
2022/08/01 03:44:03;;;;;;;3.67;2.70;;;20.30;97.30;;;;;;5036952;28;20418;-82
2022/08/01 03:46:35;;;;;;;3.20;1.97;;;20.20;97.30;;;;;;5029015;28;20788;-82
2022/08/01 03:49:06;;;;;;;4.30;2.33;;;20.20;97.30;;;;;;5038590;28;20449;-84
2022/08/01 03:51:33;;;;;;;2.00;1.83;;;20.20;97.30;;;;;;5057927;28;20456;-85
2022/08/01 03:54:01;;;;;;;1.80;1.70;;;20.20;97.30;;;;;;5037913;28;20429;-85
2022/08/01 03:56:30;;;;;;;1.47;1.40;;;20.20;97.30;;;;;;5038669;28;20413;-84
2022/08/01 03:58:56;;;;;;;1.80;1.70;;;20.20;97.30;;;;;;5042717;28;20438;-85
2022/08/01 04:01:22;;;;;;;3.73;1.87;;;20.10;97.30;;;;;;5038367;28;20428;-84
2022/08/01 04:03:48;;;;;;;2.87;1.60;;;20.20;97.30;;;;;;5042136;28;20497;-84
2022/08/01 04:06:14;;;;;;;1.57;1.47;;;20.10;97.30;;;;;;5039652;28;20280;-84
2022/08/01 04:08:41;;;;;;;2.37;2.17;;;20.10;97.30;;;;;;5039282;28;20716;-84
2022/08/01 04:11:08;;;;;;;1.50;1.40;;;20.20;97.30;;;;;;5040353;28;20694;-84
2022/08/01 04:13:34;;;;;;;1.67;1.57;;;20.10;97.30;;;;;;5040267;28;20953;-80
2022/08/01 04:16:00;;;;;;;1.40;1.30;;;20.10;97.30;;;;;;5039747;28;20426;-84
2022/08/01 04:18:26;;;;;;;1.90;1.60;;;20.10;97.30;;;;;;5040380;28;20187;-84
2022/08/01 04:20:51;;;;;;;1.60;1.50;;;20.10;97.30;;;;;;5040920;28;20418;-84
2022/08/01 04:23:24;;;;;;;2.93;2.10;;;20.20;97.30;;;;;;5041168;28;20183;-84
2022/08/01 04:25:51;;;;;;;2.70;2.33;;;20.20;97.30;;;;;;5036479;28;20191;-84
2022/08/01 04:28:19;;;;;;;1.40;1.30;;;20.20;97.30;;;;;;5041806;28;20460;-84
2022/08/01 04:30:47;;;;;;;1.80;1.40;;;20.20;97.30;;;;;;5057975;28;20418;-82
2022/08/01 04:33:16;;;;;;;3.13;2.40;;;20.30;97.30;;;;;;5039646;28;20461;-83
2022/08/01 04:35:45;;;;;;;1.40;1.40;;;20.30;97.30;;;;;;5039619;28;20422;-81
2022/08/01 04:38:13;;;;;;;5.53;1.80;;;20.40;97.30;;;;;;5057136;28;20438;-84
2022/08/01 04:40:40;;;;;;;1.73;1.70;;;20.40;97.30;;;;;;5041183;28;20994;-83
2022/08/01 04:43:07;;;;;;;1.77;1.23;;;20.30;97.30;;;;;;5041396;28;20445;-82
2022/08/01 04:45:34;;;;;;;2.37;2.17;;;20.30;97.30;;;;;;5040975;28;20502;-83
2022/08/01 04:48:01;;;;;;;1.63;1.20;;;20.20;97.30;;;;;;5057995;28;20445;-83
2022/08/01 04:50:27;;;;;;;2.03;1.93;;;20.20;97.30;;;;;;5040809;28;20422;-83
2022/08/01 04:52:53;;;;;;;1.63;1.63;;;20.20;97.30;;;;;;5040341;28;20450;-83
2022/08/01 04:55:18;;;;;;;1.60;1.50;;;20.20;97.30;;;;;;5057515;28;20417;-84
2022/08/01 04:57:46;;;;;;;16.10;3.13;;;20.20;97.30;;;;;;5039413;28;20556;-83
2022/08/01 05:00:13;;;;;;;2.10;1.90;;;20.20;97.30;;;;;;5039217;28;20271;-83
2022/08/01 05:02:40;;;;;;;1.53;1.13;;;20.20;97.30;;;;;;5040207;28;20450;-82
2022/08/01 05:05:06;;;;;;;1.83;1.77;;;20.20;97.30;;;;;;5040697;28;20446;-83
2022/08/01 05:07:32;;;;;;;1.63;1.40;;;20.20;97.30;;;;;;5039705;28;20426;-83
2022/08/01 05:09:58;;;;;;;1.20;1.10;;;20.20;97.30;;;;;;5057980;28;20200;-83
2022/08/01 05:12:24;;;;;;;1.93;1.70;;;20.20;97.30;;;;;;5059018;28;20535;-79
2022/08/01 05:14:49;;;;;;;1.40;1.30;;;20.20;97.30;;;;;;5043930;28;20347;-80
2022/08/01 05:17:16;;;;;;;1.83;1.30;;;20.20;97.30;;;;;;5044567;28;20611;-79
2022/08/01 05:19:42;;;;;;;1.50;1.40;;;20.20;97.30;;;;;;5044753;28;20194;-79
2022/08/01 05:22:09;;;;;;;2.07;2.00;;;20.20;97.30;;;;;;5044501;28;20979;-79
2022/08/01 05:24:37;;;;;;;1.40;1.30;;;20.20;97.30;;;;;;5045023;28;20410;-80
2022/08/01 05:27:04;;;;;;;1.40;1.10;;;20.20;97.30;;;;;;5044341;28;20422;-80
2022/08/01 05:29:30;;;;;;;1.83;1.63;;;20.20;97.30;;;;;;5038181;28;20450;-79
2022/08/01 05:31:56;;;;;;;1.47;1.40;;;20.20;97.30;;;;;;5043544;28;20450;-80
2022/08/01 05:34:22;;;;;;;2.23;1.90;;;20.20;97.30;;;;;;5043946;28;20621;-80
2022/08/01 05:36:48;;;;;;;1.70;1.57;;;20.20;97.30;;;;;;5063102;28;20442;-79
2022/08/01 05:39:14;;;;;;;1.53;1.47;;;20.20;97.30;;;;;;5061226;28;20199;-81
2022/08/01 05:41:40;;;;;;;1.40;1.23;;;20.30;97.30;;;;;;5043449;28;20422;-80
2022/08/01 05:44:06;;;;;;;1.50;1.43;;;20.30;97.30;;;;;;5043724;28;20187;-80
2022/08/01 05:46:33;;;;;;;2.30;1.37;;;20.30;97.30;;;;;;5043774;28;20466;-82
2022/08/01 05:48:59;;;;;;;1.47;1.47;;;20.40;97.30;;;;;;5042701;28;20955;-80
2022/08/01 05:51:25;;;;;;;1.60;1.50;;;20.40;97.30;;;;;;5043770;28;20466;-81
2022/08/01 05:53:51;;;;;;;1.67;1.57;;;20.50;97.30;;;;;;5043742;28;20176;-80
2022/08/01 05:56:17;;;;;;;2.43;1.97;;;20.60;97.30;;;;;;5044565;28;20877;-80
2022/08/01 05:58:43;;;;;;;2.10;1.20;;;20.70;97.30;;;;;;5044029;28;20433;-80
2022/08/01 06:01:08;;;;;;;1.47;1.43;;;20.80;97.30;;;;;;5042384;28;20802;-80
2022/08/01 06:03:34;;;;;;;1.67;1.57;;;20.80;97.30;;;;;;5042690;28;20184;-80
2022/08/01 06:06:00;;;;;;;1.87;1.50;;;20.80;97.30;;;;;;5043100;28;20206;-80
2022/08/01 06:08:26;;;;;;;2.20;2.03;;;20.90;97.30;;;;;;5043940;28;20191;-80
2022/08/01 06:10:52;;;;;;;1.70;1.57;;;20.90;97.30;;;;;;5043568;28;20406;-80
2022/08/01 06:13:19;;;;;;;2.30;1.57;;;21.00;97.30;;;;;;5042731;28;21045;-80
2022/08/01 06:15:45;;;;;;;2.40;1.87;;;21.00;97.30;;;;;;5041494;28;20172;-80
2022/08/01 06:18:11;;;;;;;1.53;1.50;;;21.00;97.30;;;;;;5042487;28;20516;-79
2022/08/01 06:20:37;;;;;;;1.67;1.57;;;21.00;97.30;;;;;;5044081;28;20464;-80
2022/08/01 06:23:03;;;;;;;1.33;1.33;;;21.00;97.30;;;;;;5043704;28;20422;-79
2022/08/01 06:25:29;;;;;;;1.70;1.60;;;21.10;97.30;;;;;;5042664;28;20176;-80
2022/08/01 06:27:54;;;;;;;2.00;1.83;;;21.20;97.30;;;;;;5042709;28;20695;-79
2022/08/01 06:30:20;;;;;;;3.33;1.90;;;21.20;97.30;;;;;;5041006;28;20176;-81
2022/08/01 06:32:46;;;;;;;2.30;1.33;;;21.20;97.30;;;;;;5061804;28;20227;-80
2022/08/01 06:35:11;;;;;;;2.23;1.80;;;21.30;97.30;;;;;;5040917;28;20637;-79
2022/08/01 06:37:37;;;;;;;2.23;1.30;;;21.30;97.30;;;;;;5034614;28;20218;-80
2022/08/01 06:40:08;;;;;;;1.43;1.33;;;21.30;97.30;;;;;;5034564;28;20192;-79
2022/08/01 06:42:37;;;;;;;1.67;1.57;;;21.40;97.30;;;;;;5034788;28;20171;-79
2022/08/01 06:45:09;;;;;;;1.40;1.30;;;21.40;97.30;;;;;;5035211;28;20445;-80
2022/08/01 06:47:35;;;;;;;1.47;1.43;;;21.40;97.30;;;;;;5034823;28;20410;-80
2022/08/01 06:50:01;;;;;;;1.53;1.50;;;21.50;97.30;;;;;;5035603;28;20435;-80
2022/08/01 06:52:26;;;;;;;1.33;1.20;;;21.50;97.30;;;;;;5034751;28;20465;-79
2022/08/01 06:54:52;;;;;;;1.90;1.80;;;21.50;97.30;;;;;;5034031;28;20752;-79
2022/08/01 06:57:18;;;;;;;1.83;1.73;;;21.50;97.30;;;;;;5052491;28;20659;-79
2022/08/01 06:59:44;;;;;;;1.47;1.37;;;21.50;97.30;;;;;;5034921;28;20431;-79
2022/08/01 07:02:10;;;;;;;3.50;2.10;;;21.50;97.30;;;;;;5052182;28;20180;-79
2022/08/01 07:04:36;;;;;;;2.20;1.10;;;21.50;97.30;;;;;;5051972;28;20200;-79
2022/08/01 07:07:01;;;;;;;4.03;1.90;;;21.50;97.30;;;;;;5034671;28;20225;-79
2022/08/01 07:09:27;;;;;;;1.37;1.33;;;21.50;97.30;;;;;;5035108;28;20277;-79
2022/08/01 07:11:54;;;;;;;1.27;1.17;;;21.50;97.30;;;;;;5034906;28;20296;-80
2022/08/01 07:14:21;;;;;;;1.23;1.20;;;21.50;97.30;;;;;;5035481;28;20464;-80
2022/08/01 07:16:47;;;;;;;1.10;1.00;;;21.60;97.30;;;;;;5053442;28;20406;-79
2022/08/01 07:19:13;;;;;;;1.10;1.00;;;21.50;97.30;;;;;;5038685;28;20445;-79
2022/08/01 07:21:39;;;;;;;1.83;1.47;;;21.50;97.30;;;;;;5038456;28;20411;-79
2022/08/01 07:24:09;;;;;;;0.87;0.83;;;21.50;97.30;;;;;;5038424;28;20418;-79
2022/08/01 07:26:35;;;;;;;1.50;1.50;;;21.40;97.30;;;;;;5038536;28;20745;-80
2022/08/01 07:29:00;;;;;;;1.10;1.00;;;21.40;97.30;;;;;;5037764;28;20445;-79
2022/08/01 07:31:26;;;;;;;2.37;1.77;;;21.40;97.30;;;;;;5038284;28;20195;-79
2022/08/01 07:33:52;;;;;;;1.90;1.80;;;21.40;97.30;;;;;;5037908;28;20277;-80
2022/08/01 07:36:18;;;;;;;1.60;1.50;;;21.40;97.30;;;;;;5038705;28;20167;-80
2022/08/01 07:38:44;;;;;;;1.80;1.43;;;21.40;97.30;;;;;;5038351;28;20219;-80
2022/08/01 07:41:10;;;;;;;1.47;1.37;;;21.40;97.30;;;;;;5042015;28;20988;-81
2022/08/01 07:43:36;;;;;;;1.03;0.93;;;21.30;97.30;;;;;;5040992;28;20443;-82
2022/08/01 07:46:03;;;;;;;1.50;1.40;;;21.20;97.30;;;;;;5039766;28;20800;-83
2022/08/01 07:48:29;;;;;;;1.30;1.20;;;21.00;97.30;;;;;;5039899;28;20192;-82
2022/08/01 07:50:54;;;;;;;1.53;1.47;;;20.90;97.30;;;;;;5039319;28;20441;-82
2022/08/01 07:53:20;;;;;;;1.00;0.90;;;20.90;97.30;;;;;;5040664;28;20584;-82
2022/08/01 07:55:46;;;;;;;1.20;1.10;;;20.80;97.30;;;;;;5041173;28;20247;-82
2022/08/01 07:58:12;;;;;;;1.20;1.10;;;20.80;97.30;;;;;;5041232;28;20470;-82
2022/08/01 08:00:37;;;;;;;1.23;1.13;;;20.90;97.30;;;;;;5039765;28;20633;-82
2022/08/01 08:03:03;;;;;;;1.30;1.20;;;20.90;97.30;;;;;;5041517;28;20186;-82
2022/08/01 08:05:29;;;;;;;15.90;1.47;;;21.00;97.30;;;;;;5042368;28;20197;-81
2022/08/01 08:07:55;;;;;;;0.90;0.90;;;21.00;97.30;;;;;;5061157;28;20172;-81
2022/08/01 08:10:20;;;;;;;1.10;1.00;;;21.10;97.30;;;;;;5043117;28;20179;-81
2022/08/01 08:12:46;;;;;;;1.00;0.93;;;21.20;97.30;;;;;;5042840;28;20954;-81
2022/08/01 08:15:13;;;;;;;2.47;1.23;;;21.20;97.30;;;;;;5043246;28;20168;-81
2022/08/01 08:17:38;;;;;;;1.33;1.23;;;21.30;97.30;;;;;;5042843;28;20538;-81
2022/08/01 08:20:06;;;;;;;1.00;0.90;;;21.40;97.30;;;;;;5042342;28;20442;-80
2022/08/01 08:22:33;;;;;;;1.50;1.30;;;21.60;97.30;;;;;;5058634;28;20211;-81
2022/08/01 08:24:58;;;;;;;1.00;0.90;;;21.70;97.30;;;;;;5040816;28;20421;-80
2022/08/01 08:27:24;;;;;;;1.40;1.40;;;21.80;97.30;;;;;;5059266;28;20410;-80
2022/08/01 08:29:49;;;;;;;0.93;0.83;;;21.70;97.30;;;;;;5063769;28;20416;-81
2022/08/01 08:32:15;;;;;;;1.47;0.90;;;21.70;97.30;;;;;;5047154;28;20224;-81
2022/08/01 08:34:41;;;;;;;0.90;0.80;;;21.80;97.30;;;;;;5057499;22;20270;-84
2022/08/01 08:37:07;;;;;;;0.90;0.80;;;21.90;97.30;;;;;;5051490;28;20214;-86
2022/08/01 08:39:33;;;;;;;0.90;0.80;;;22.00;97.30;;;;;;5059059;28;20438;-84
2022/08/01 08:42:05;;;;;;;0.80;0.80;;;22.10;97.30;;;;;;5051621;28;20184;-86
2022/08/01 08:44:31;;;;;;;1.03;1.00;;;22.20;97.30;;;;;;5051811;28;20180;-86
2022/08/01 08:47:00;;;;;;;1.10;0.87;;;22.20;97.30;;;;;;5052373;28;21001;-86
2022/08/01 08:49:27;;;;;;;0.90;0.80;;;22.30;97.30;;;;;;5051592;28;20199;-84
2022/08/01 08:52:00;;;;;;;1.00;0.90;;;22.40;97.30;;;;;;5055907;28;20506;-85
2022/08/01 08:54:27;;;;;;;1.20;1.07;;;22.40;97.30;;;;;;5048028;28;20498;-84
2022/08/01 08:56:54;;;;;;;1.13;1.03;;;22.40;97.30;;;;;;5051150;28;20472;-84
2022/08/01 08:59:20;;;;;;;1.40;1.23;;;22.40;97.30;;;;;;5051565;28;20434;-84
2022/08/01 09:01:47;;;;;;;1.23;1.10;;;22.40;97.30;;;;;;5051596;28;20446;-85
2022/08/01 09:04:13;;;;;;;1.30;0.90;;;22.40;97.30;;;;;;5052103;28;20446;-84
2022/08/01 09:06:39;;;;;;;1.43;1.10;;;22.40;97.30;;;;;;5052022;28;20426;-84
2022/08/01 09:09:07;;;;;;;0.87;0.83;;;22.50;97.30;;;;;;5051888;28;20474;-85
2022/08/01 09:11:33;;;;;;;2.23;1.10;;;22.60;97.30;;;;;;5051363;28;20442;-84
2022/08/01 09:14:14;;;;;;;1.30;1.20;;;22.80;97.30;;;;;;5052075;28;20430;-84
2022/08/01 09:16:42;;;;;;;1.10;1.00;;;22.90;97.30;;;;;;5051809;28;20709;-85
2022/08/01 09:19:14;;;;;;;0.90;0.80;;;23.10;97.30;;;;;;5051831;28;20489;-83
2022/08/01 09:21:54;;;;;;;1.20;1.10;;;23.00;97.30;;;;;;5051352;28;20521;-86
2022/08/01 09:24:20;;;;;;;0.87;0.80;;;23.00;97.30;;;;;;5051509;28;20422;-84
2022/08/01 09:26:46;;;;;;;1.00;0.93;;;23.10;97.30;;;;;;5052975;28;20807;-82
2022/08/01 09:29:18;;;;;;;1.30;1.20;;;23.20;97.30;;;;;;5051563;28;20203;-84
2022/08/01 09:31:46;;;;;;;1.30;1.20;;;23.30;97.30;;;;;;5050955;28;20517;-84
2022/08/01 09:34:12;;;;;;;1.63;1.27;;;23.30;97.30;;;;;;5051440;28;20462;-84
2022/08/01 09:36:54;;;;;;;1.27;1.17;;;23.30;97.30;;;;;;5050421;28;20411;-85
2022/08/01 09:39:21;;;;;;;1.43;1.40;;;23.20;97.30;;;;;;5050725;28;20227;-81
2022/08/01 09:41:48;;;;;;;1.83;1.80;;;23.20;97.30;;;;;;5050360;28;20472;-83
2022/08/01 09:44:17;;;;;;;1.47;1.37;;;23.20;97.30;;;;;;5051526;28;20923;-82
2022/08/01 09:46:49;;;;;;;0.80;0.70;;;23.20;97.30;;;;;;5051037;28;20438;-83
2022/08/01 09:49:36;;;;;;;1.07;0.97;;;23.20;97.30;;;;;;5050451;28;20512;-84
2022/08/01 09:52:15;;;;;;;1.40;1.10;;;23.30;97.30;;;;;;5051511;28;20519;-84
2022/08/01 09:54:42;;;;;;;0.90;0.80;;;23.20;97.30;;;;;;5038201;28;20410;-83
2022/08/01 09:57:14;;;;;;;1.07;0.83;;;23.10;97.30;;;;;;5051128;28;20915;-81
2022/08/01 09:59:42;;;;;;;0.70;0.70;;;23.00;97.30;;;;;;5032657;28;20831;-82
2022/08/01 10:02:12;;;;;;;1.20;1.10;;;22.90;97.30;;;;;;5046277;28;20434;-83
2022/08/01 10:04:46;;;;;;;0.90;0.80;;;22.80;97.30;;;;;;5051036;28;20422;-82
2022/08/01 10:07:15;;;;;;;2.50;1.90;;;23.00;97.30;;;;;;5062777;28;20946;-83
2022/08/01 10:09:40;;;;;;;1.10;0.90;;;23.00;97.30;;;;;;5051711;28;20445;-82
2022/08/01 10:12:07;;;;;;;5.17;1.27;;;23.00;97.30;;;;;;5051285;28;20473;-82
2022/08/01 10:14:33;;;;;;;1.10;1.00;;;23.00;97.30;;;;;;5050896;28;20210;-82
2022/08/01 10:17:00;;;;;;;0.90;0.80;;;23.10;97.30;;;;;;5051465;28;20943;-83
2022/08/01 10:19:27;;;;;;;1.30;1.20;;;23.20;97.00;;;;;;5051940;28;20207;-83
2022/08/01 10:21:55;;;;;;;1.00;0.83;;;23.40;95.90;;;;;;5052090;28;20427;-83
2022/08/01 10:24:22;;;;;;;1.53;1.10;;;23.60;96.00;;;;;;5052440;28;20449;-83
2022/08/01 10:26:51;;;;;;;1.00;0.90;;;23.70;95.10;;;;;;5051088;28;20506;-83
2022/08/01 10:29:18;;;;;;;1.40;1.00;;;23.90;95.50;;;;;;5052487;28;20512;-82
2022/08/01 10:31:45;;;;;;;1.47;1.37;;;24.10;95.00;;;;;;5052928;28;20457;-82
2022/08/01 10:34:11;;;;;;;0.90;0.80;;;24.10;94.70;;;;;;5039560;28;20738;-81
2022/08/01 10:36:38;;;;;;;0.90;0.80;;;24.10;94.70;;;;;;5050895;28;20927;-84
2022/08/01 10:39:06;;;;;;;1.20;1.10;;;24.00;95.00;;;;;;5052810;28;20446;-81
2022/08/01 10:41:34;;;;;;;1.00;0.90;;;24.10;94.90;;;;;;5052163;28;20677;-82
2022/08/01 10:44:02;;;;;;;0.90;0.80;;;24.10;94.70;;;;;;5050547;28;20564;-83
2022/08/01 10:46:30;;;;;;;1.20;1.10;;;24.20;95.30;;;;;;5050742;28;20464;-83
2022/08/01 10:49:02;;;;;;;1.00;0.90;;;24.40;94.90;;;;;;5052249;28;20490;-83
2022/08/01 10:51:29;;;;;;;1.10;1.00;;;24.50;93.40;;;;;;5038957;28;20450;-84
2022/08/01 10:53:55;;;;;;;1.10;1.00;;;24.60;93.60;;;;;;5055182;28;20496;-81
2022/08/01 10:56:22;;;;;;;1.30;1.23;;;24.70;93.00;;;;;;5056884;28;20426;-84
2022/08/01 10:58:48;;;;;;;1.20;1.10;;;24.70;92.50;;;;;;5055258;28;20196;-84
2022/08/01 11:01:14;;;;;;;1.50;1.27;;;24.80;93.60;;;;;;5055989;28;20418;-83
2022/08/01 11:03:40;;;;;;;1.40;1.30;;;24.80;93.00;;;;;;5043409;28;20982;-83
2022/08/01 11:06:06;;;;;;;2.30;1.70;;;24.70;92.50;;;;;;5057285;28;20199;-82
2022/08/01 11:08:37;;;;;;;1.47;1.37;;;24.70;92.50;;;;;;5055622;28;20446;-83
2022/08/01 11:11:05;;;;;;;2.90;1.97;;;24.60;92.10;;;;;;5056078;28;20168;-83
2022/08/01 11:14:09;;;;;;;1.20;1.10;;;24.60;92.80;;;;;;5056632;28;20462;-83
2022/08/01 11:16:36;;;;;;;2.30;1.30;;;24.60;92.20;;;;;;5055164;28;20408;-84
2022/08/01 11:19:03;;;;;;;1.43;1.33;;;24.80;92.10;;;;;;5072682;28;20592;-81
2022/08/01 11:21:56;;;;;;;2.60;1.50;;;24.80;90.50;;;;;;5054891;28;20420;-82
2022/08/01 11:24:47;;;;;;;1.57;1.10;;;24.90;90.50;;;;;;5047153;28;20461;-84
2022/08/01 11:27:28;;;;;;;1.37;1.10;;;25.10;91.60;;;;;;5056792;28;20437;-81
2022/08/01 11:30:09;;;;;;;1.60;1.50;;;25.20;90.00;;;;;;5057786;28;20552;-82
2022/08/01 11:32:57;;;;;;;1.30;1.20;;;25.30;90.20;;;;;;5056490;28;20475;-81
2022/08/01 11:35:26;;;;;;;2.70;1.60;;;25.40;88.90;;;;;;5059556;28;21017;-82
2022/08/01 11:37:55;;;;;;;2.70;2.10;;;25.40;90.00;;;;;;5054998;28;20441;-82
2022/08/01 11:40:26;;;;;;;1.70;1.60;;;25.40;90.50;;;;;;5055950;28;20513;-82
2022/08/01 11:43:13;;;;;;;1.60;1.37;;;25.50;90.50;;;;;;5057493;28;20433;-82
2022/08/01 11:45:56;;;;;;;1.33;1.23;;;25.40;90.70;;;;;;5058318;28;20418;-83
2022/08/01 11:48:24;;;;;;;2.20;1.80;;;25.30;90.60;;;;;;5044945;28;20440;-83
2022/08/01 11:50:54;;;;;;;1.40;1.30;;;25.20;91.50;;;;;;5056241;28;20430;-83
2022/08/01 11:53:21;;;;;;;2.53;1.90;;;25.10;91.80;;;;;;5058012;28;20465;-83
2022/08/01 11:55:52;;;;;;;1.27;1.17;;;25.00;93.40;;;;;;5055550;28;20445;-82
2022/08/01 11:58:25;;;;;;;2.63;2.43;;;25.10;93.60;;;;;;5040899;28;20508;-82
2022/08/01 12:00:56;;;;;;;1.70;1.70;;;25.40;93.20;;;;;;5056892;28;20425;-81
2022/08/01 12:03:27;;;;;;;1.00;1.00;;;25.50;93.20;;;;;;5056347;28;20438;-83
2022/08/01 12:05:53;;;;;;;1.37;1.33;;;25.50;91.40;;;;;;5057733;28;20426;-81
2022/08/01 12:08:27;;;;;;;1.50;1.43;;;25.50;90.80;;;;;;5058628;28;20553;-82
2022/08/01 12:10:53;;;;;;;2.13;1.53;;;25.50;92.10;;;;;;5057784;28;20423;-82
2022/08/01 12:13:19;;;;;;;4.53;1.53;;;25.60;90.80;;;;;;5058978;28;20473;-82
2022/08/01 12:15:45;;;;;;;2.10;1.90;;;25.70;90.90;;;;;;5059303;28;20455;-82
2022/08/01 12:18:11;;;;;;;3.27;1.73;;;25.70;90.50;;;;;;5057520;28;20434;-81
2022/08/01 12:20:40;;;;;;;1.37;1.27;;;25.80;90.30;;;;;;5059376;28;20206;-82
2022/08/01 12:23:09;;;;;;;1.87;1.60;;;25.90;91.30;;;;;;5058139;28;20597;-82
2022/08/01 12:25:36;;;;;;;1.40;1.20;;;25.90;89.80;;;;;;5059922;28;20486;-82
2022/08/01 12:28:04;;;;;;;1.77;1.40;;;25.70;89.60;;;;;;5059022;28;20426;-81
2022/08/01 12:30:30;;;;;;;4.07;1.23;;;25.70;89.20;;;;;;5058720;28;20441;-81
2022/08/01 12:32:57;;;;;;;1.10;1.00;;;25.60;89.90;;;;;;5058828;28;20462;-82
2022/08/01 12:35:25;;;;;;;2.10;1.83;;;25.50;89.80;;;;;;5057611;28;20450;-82
2022/08/01 12:37:53;;;;;;;1.67;1.67;;;25.50;89.90;;;;;;5056971;28;20756;-82
2022/08/01 12:40:28;;;;;;;3.47;1.87;;;25.60;89.40;;;;;;5058373;28;20450;-82
2022/08/01 12:43:04;;;;;;;1.13;1.03;;;25.60;89.30;;;;;;5059678;28;20456;-81
2022/08/01 12:45:37;;;;;;;4.37;1.50;;;25.60;88.40;;;;;;5060060;28;20711;-81
2022/08/01 12:48:08;;;;;;;1.60;1.50;;;25.70;89.70;;;;;;5056692;28;20425;-81
2022/08/01 12:50:36;;;;;;;1.30;1.20;;;25.80;89.10;;;;;;5049117;28;20450;-81
2022/08/01 12:53:02;;;;;;;1.13;1.03;;;25.90;90.00;;;;;;5057323;28;20502;-81
2022/08/01 12:55:27;;;;;;;1.60;1.53;;;25.90;89.80;;;;;;5058216;28;20434;-82
2022/08/01 12:58:04;;;;;;;7.03;1.40;;;25.90;89.70;;;;;;5059165;28;20200;-81